sensor_id;sensor_type;location;lat;lon;timestamp;P1;durP1;ratioP1;P2;durP2;ratioP2
21733;SDS011;11029;47.820;10.534;2022-09-03T00:01:15;3.20;;;2.95;;
21733;SDS011;11029;47.820;10.534;2022-09-03T00:03:56;4.03;;;3.13;;
21733;SDS011;11029;47.820;10.534;2022-09-03T00:06:33;2.95;;;2.75;;
21733;SDS011;11029;47.820;10.534;2022-09-03T00:09:11;3.75;;;3.40;;
21733;SDS011;11029;47.820;10.534;2022-09-03T00:11:53;3.55;;;3.15;;
21733;SDS011;11029;47.820;10.534;2022-09-03T00:15:29;3.10;;;2.90;;
21733;SDS011;11029;47.820;10.534;2022-09-03T00:17:51;4.15;;;3.15;;
21733;SDS011;11029;47.820;10.534;2022-09-03T00:20:24;3.50;;;3.30;;
21733;SDS011;11029;47.820;10.534;2022-09-03T00:23:03;5.53;;;3.70;;
21733;SDS011;11029;47.820;10.534;2022-09-03T00:25:42;5.25;;;3.53;;
21733;SDS011;11029;47.820;10.534;2022-09-03T00:28:12;3.88;;;3.58;;
21733;SDS011;11029;47.820;10.534;2022-09-03T00:30:44;4.93;;;3.10;;
21733;SDS011;11029;47.820;10.534;2022-09-03T00:33:21;3.40;;;3.15;;
21733;SDS011;11029;47.820;10.534;2022-09-03T00:36:02;3.13;;;2.92;;
21733;SDS011;11029;47.820;10.534;2022-09-03T00:38:36;3.25;;;2.95;;
21733;SDS011;11029;47.820;10.534;2022-09-03T00:41:19;3.85;;;2.90;;
21733;SDS011;11029;47.820;10.534;2022-09-03T00:43:53;3.92;;;2.95;;
21733;SDS011;11029;47.820;10.534;2022-09-03T00:47:31;4.25;;;3.15;;
21733;SDS011;11029;47.820;10.534;2022-09-03T00:49:45;3.30;;;3.10;;
21733;SDS011;11029;47.820;10.534;2022-09-03T00:57:48;2.55;;;2.45;;
21733;SDS011;11029;47.820;10.534;2022-09-03T01:00:36;3.40;;;3.10;;
21733;SDS011;11029;47.820;10.534;2022-09-03T01:11:49;8.43;;;3.95;;
21733;SDS011;11029;47.820;10.534;2022-09-03T01:25:25;3.85;;;3.10;;
21733;SDS011;11029;47.820;10.534;2022-09-03T01:31:18;5.75;;;3.70;;
21733;SDS011;11029;47.820;10.534;2022-09-03T01:42:22;3.55;;;3.25;;
21733;SDS011;11029;47.820;10.534;2022-09-03T01:45:02;3.63;;;3.33;;
21733;SDS011;11029;47.820;10.534;2022-09-03T01:50:41;4.53;;;3.50;;
21733;SDS011;11029;47.820;10.534;2022-09-03T01:58:39;4.60;;;3.38;;
21733;SDS011;11029;47.820;10.534;2022-09-03T02:01:13;3.85;;;3.55;;
21733;SDS011;11029;47.820;10.534;2022-09-03T02:03:47;4.15;;;3.75;;
21733;SDS011;11029;47.820;10.534;2022-09-03T02:06:15;3.75;;;3.42;;
21733;SDS011;11029;47.820;10.534;2022-09-03T02:08:45;5.53;;;4.03;;
21733;SDS011;11029;47.820;10.534;2022-09-03T02:11:12;4.00;;;3.70;;
21733;SDS011;11029;47.820;10.534;2022-09-03T02:13:57;3.72;;;3.42;;
21733;SDS011;11029;47.820;10.534;2022-09-03T02:16:30;3.70;;;3.40;;
21733;SDS011;11029;47.820;10.534;2022-09-03T02:19:00;3.17;;;2.90;;
21733;SDS011;11029;47.820;10.534;2022-09-03T02:21:32;3.55;;;3.05;;
21733;SDS011;11029;47.820;10.534;2022-09-03T02:24:02;3.33;;;3.03;;
21733;SDS011;11029;47.820;10.534;2022-09-03T02:26:30;3.35;;;3.05;;
21733;SDS011;11029;47.820;10.534;2022-09-03T02:28:57;3.90;;;3.60;;
21733;SDS011;11029;47.820;10.534;2022-09-03T02:31:26;4.45;;;3.80;;
21733;SDS011;11029;47.820;10.534;2022-09-03T02:33:55;3.97;;;3.58;;
21733;SDS011;11029;47.820;10.534;2022-09-03T02:36:27;3.45;;;3.15;;
21733;SDS011;11029;47.820;10.534;2022-09-03T02:39:03;3.80;;;3.50;;
21733;SDS011;11029;47.820;10.534;2022-09-03T02:41:30;4.32;;;3.45;;
21733;SDS011;11029;47.820;10.534;2022-09-03T02:46:31;8.55;;;3.70;;
21733;SDS011;11029;47.820;10.534;2022-09-03T02:49:19;3.72;;;3.40;;
21733;SDS011;11029;47.820;10.534;2022-09-03T02:51:46;4.10;;;3.72;;
21733;SDS011;11029;47.820;10.534;2022-09-03T02:54:13;3.72;;;3.42;;
21733;SDS011;11029;47.820;10.534;2022-09-03T02:56:46;3.67;;;3.38;;
21733;SDS011;11029;47.820;10.534;2022-09-03T02:59:14;3.85;;;3.33;;
21733;SDS011;11029;47.820;10.534;2022-09-03T03:01:43;3.88;;;3.58;;
21733;SDS011;11029;47.820;10.534;2022-09-03T03:04:11;3.88;;;3.58;;
21733;SDS011;11029;47.820;10.534;2022-09-03T03:06:38;3.78;;;3.47;;
21733;SDS011;11029;47.820;10.534;2022-09-03T03:09:05;4.07;;;3.08;;
21733;SDS011;11029;47.820;10.534;2022-09-03T03:11:33;4.38;;;3.65;;
21733;SDS011;11029;47.820;10.534;2022-09-03T03:14:02;4.97;;;3.83;;
21733;SDS011;11029;47.820;10.534;2022-09-03T03:16:29;3.63;;;3.00;;
21733;SDS011;11029;47.820;10.534;2022-09-03T03:18:56;3.60;;;3.30;;
21733;SDS011;11029;47.820;10.534;2022-09-03T03:21:23;3.47;;;3.28;;
21733;SDS011;11029;47.820;10.534;2022-09-03T03:23:50;5.43;;;3.20;;
21733;SDS011;11029;47.820;10.534;2022-09-03T03:26:17;3.90;;;3.60;;
21733;SDS011;11029;47.820;10.534;2022-09-03T03:28:46;4.55;;;3.90;;
21733;SDS011;11029;47.820;10.534;2022-09-03T03:31:15;5.60;;;3.60;;
21733;SDS011;11029;47.820;10.534;2022-09-03T03:33:43;3.70;;;3.40;;
21733;SDS011;11029;47.820;10.534;2022-09-03T03:36:15;5.20;;;4.20;;
21733;SDS011;11029;47.820;10.534;2022-09-03T03:38:42;4.57;;;4.15;;
21733;SDS011;11029;47.820;10.534;2022-09-03T03:41:12;5.00;;;3.78;;
21733;SDS011;11029;47.820;10.534;2022-09-03T03:43:44;4.60;;;4.20;;
21733;SDS011;11029;47.820;10.534;2022-09-03T03:46:11;7.88;;;4.20;;
21733;SDS011;11029;47.820;10.534;2022-09-03T03:48:38;5.78;;;4.50;;
21733;SDS011;11029;47.820;10.534;2022-09-03T03:51:05;4.20;;;3.80;;
21733;SDS011;11029;47.820;10.534;2022-09-03T03:53:35;4.22;;;3.83;;
21733;SDS011;11029;47.820;10.534;2022-09-03T03:56:04;4.90;;;4.50;;
21733;SDS011;11029;47.820;10.534;2022-09-03T03:58:32;4.75;;;4.35;;
21733;SDS011;11029;47.820;10.534;2022-09-03T04:01:09;5.07;;;4.57;;
21733;SDS011;11029;47.820;10.534;2022-09-03T04:03:41;6.25;;;4.50;;
21733;SDS011;11029;47.820;10.534;2022-09-03T04:06:09;5.97;;;5.40;;
21733;SDS011;11029;47.820;10.534;2022-09-03T04:08:38;7.75;;;6.07;;
21733;SDS011;11029;47.820;10.534;2022-09-03T04:11:07;7.45;;;6.75;;
21733;SDS011;11029;47.820;10.534;2022-09-03T04:13:36;8.52;;;7.13;;
21733;SDS011;11029;47.820;10.534;2022-09-03T04:18:43;7.20;;;6.50;;
21733;SDS011;11029;47.820;10.534;2022-09-03T04:21:11;8.02;;;6.63;;
21733;SDS011;11029;47.820;10.534;2022-09-03T04:23:41;6.70;;;6.00;;
21733;SDS011;11029;47.820;10.534;2022-09-03T04:26:11;8.40;;;6.07;;
21733;SDS011;11029;47.820;10.534;2022-09-03T04:28:39;6.95;;;6.25;;
21733;SDS011;11029;47.820;10.534;2022-09-03T04:31:08;7.65;;;6.05;;
21733;SDS011;11029;47.820;10.534;2022-09-03T04:33:36;6.63;;;6.03;;
21733;SDS011;11029;47.820;10.534;2022-09-03T04:36:07;7.90;;;5.85;;
21733;SDS011;11029;47.820;10.534;2022-09-03T04:38:38;6.60;;;5.53;;
21733;SDS011;11029;47.820;10.534;2022-09-03T04:41:07;6.70;;;6.00;;
21733;SDS011;11029;47.820;10.534;2022-09-03T04:43:35;6.15;;;5.55;;
21733;SDS011;11029;47.820;10.534;2022-09-03T04:46:04;6.70;;;6.10;;
21733;SDS011;11029;47.820;10.534;2022-09-03T04:48:43;9.13;;;5.60;;
21733;SDS011;11029;47.820;10.534;2022-09-03T04:51:13;5.18;;;4.68;;
21733;SDS011;11029;47.820;10.534;2022-09-03T04:53:42;5.15;;;4.65;;
21733;SDS011;11029;47.820;10.534;2022-09-03T04:56:15;5.30;;;4.85;;
21733;SDS011;11029;47.820;10.534;2022-09-03T04:58:43;5.47;;;4.90;;
21733;SDS011;11029;47.820;10.534;2022-09-03T05:01:15;5.20;;;4.70;;
21733;SDS011;11029;47.820;10.534;2022-09-03T05:03:47;6.35;;;5.15;;
21733;SDS011;11029;47.820;10.534;2022-09-03T05:06:14;6.13;;;4.90;;
21733;SDS011;11029;47.820;10.534;2022-09-03T05:08:42;5.35;;;4.93;;
21733;SDS011;11029;47.820;10.534;2022-09-03T05:11:15;8.40;;;5.47;;
21733;SDS011;11029;47.820;10.534;2022-09-03T05:13:43;6.78;;;5.50;;
21733;SDS011;11029;47.820;10.534;2022-09-03T05:16:14;6.10;;;5.18;;
21733;SDS011;11029;47.820;10.534;2022-09-03T05:18:41;7.32;;;5.68;;
21733;SDS011;11029;47.820;10.534;2022-09-03T05:21:09;6.95;;;5.82;;
21733;SDS011;11029;47.820;10.534;2022-09-03T05:23:38;5.82;;;4.57;;
21733;SDS011;11029;47.820;10.534;2022-09-03T05:26:07;6.20;;;5.20;;
21733;SDS011;11029;47.820;10.534;2022-09-03T05:28:37;5.38;;;4.85;;
21733;SDS011;11029;47.820;10.534;2022-09-03T05:33:37;6.70;;;5.45;;
21733;SDS011;11029;47.820;10.534;2022-09-03T05:36:12;9.75;;;4.63;;
21733;SDS011;11029;47.820;10.534;2022-09-03T05:38:41;6.40;;;5.32;;
21733;SDS011;11029;47.820;10.534;2022-09-03T05:41:09;7.18;;;5.10;;
21733;SDS011;11029;47.820;10.534;2022-09-03T05:43:37;6.35;;;5.20;;
21733;SDS011;11029;47.820;10.534;2022-09-03T05:46:05;6.75;;;5.03;;
21733;SDS011;11029;47.820;10.534;2022-09-03T05:48:35;7.07;;;5.40;;
21733;SDS011;11029;47.820;10.534;2022-09-03T05:53:37;7.00;;;6.22;;
21733;SDS011;11029;47.820;10.534;2022-09-03T05:56:06;5.90;;;5.35;;
21733;SDS011;11029;47.820;10.534;2022-09-03T06:01:16;6.63;;;6.03;;
21733;SDS011;11029;47.820;10.534;2022-09-03T06:03:45;7.65;;;6.07;;
21733;SDS011;11029;47.820;10.534;2022-09-03T06:06:13;8.40;;;6.50;;
21733;SDS011;11029;47.820;10.534;2022-09-03T06:08:40;5.97;;;5.43;;
21733;SDS011;11029;47.820;10.534;2022-09-03T06:11:10;8.18;;;7.30;;
21733;SDS011;11029;47.820;10.534;2022-09-03T06:13:37;9.68;;;7.28;;
21733;SDS011;11029;47.820;10.534;2022-09-03T06:16:06;7.30;;;6.47;;
21733;SDS011;11029;47.820;10.534;2022-09-03T06:18:34;6.60;;;5.93;;
21733;SDS011;11029;47.820;10.534;2022-09-03T06:21:02;7.88;;;6.63;;
21733;SDS011;11029;47.820;10.534;2022-09-03T06:23:30;7.97;;;6.65;;
21733;SDS011;11029;47.820;10.534;2022-09-03T06:25:58;8.75;;;7.43;;
21733;SDS011;11029;47.820;10.534;2022-09-03T06:28:34;9.02;;;7.80;;
21733;SDS011;11029;47.820;10.534;2022-09-03T06:31:03;14.50;;;9.18;;
21733;SDS011;11029;47.820;10.534;2022-09-03T06:33:33;12.30;;;8.70;;
21733;SDS011;11029;47.820;10.534;2022-09-03T06:36:01;9.95;;;7.47;;
21733;SDS011;11029;47.820;10.534;2022-09-03T06:38:34;6.63;;;6.03;;
21733;SDS011;11029;47.820;10.534;2022-09-03T06:41:04;6.45;;;5.72;;
21733;SDS011;11029;47.820;10.534;2022-09-03T06:43:33;5.63;;;5.13;;
21733;SDS011;11029;47.820;10.534;2022-09-03T06:46:06;5.78;;;5.25;;
21733;SDS011;11029;47.820;10.534;2022-09-03T06:51:03;5.80;;;5.30;;
21733;SDS011;11029;47.820;10.534;2022-09-03T06:53:33;5.20;;;4.80;;
21733;SDS011;11029;47.820;10.534;2022-09-03T06:56:03;5.28;;;4.78;;
21733;SDS011;11029;47.820;10.534;2022-09-03T06:58:36;6.88;;;5.15;;
21733;SDS011;11029;47.820;10.534;2022-09-03T07:01:12;5.88;;;5.28;;
21733;SDS011;11029;47.820;10.534;2022-09-03T07:03:40;5.95;;;5.35;;
21733;SDS011;11029;47.820;10.534;2022-09-03T07:06:08;5.75;;;5.20;;
21733;SDS011;11029;47.820;10.534;2022-09-03T07:08:39;5.30;;;4.85;;
21733;SDS011;11029;47.820;10.534;2022-09-03T07:11:09;7.45;;;5.47;;
21733;SDS011;11029;47.820;10.534;2022-09-03T07:13:37;8.43;;;5.82;;
21733;SDS011;11029;47.820;10.534;2022-09-03T07:16:08;6.50;;;5.65;;
21733;SDS011;11029;47.820;10.534;2022-09-03T07:18:41;7.00;;;6.35;;
21733;SDS011;11029;47.820;10.534;2022-09-03T07:21:13;5.82;;;5.22;;
21733;SDS011;11029;47.820;10.534;2022-09-03T07:23:42;6.32;;;4.88;;
21733;SDS011;11029;47.820;10.534;2022-09-03T07:26:13;5.00;;;4.60;;
21733;SDS011;11029;47.820;10.534;2022-09-03T07:28:45;4.38;;;4.03;;
21733;SDS011;11029;47.820;10.534;2022-09-03T07:31:14;4.63;;;4.20;;
21733;SDS011;11029;47.820;10.534;2022-09-03T07:33:45;5.25;;;4.75;;
21733;SDS011;11029;47.820;10.534;2022-09-03T07:36:16;5.47;;;4.97;;
21733;SDS011;11029;47.820;10.534;2022-09-03T07:38:44;5.50;;;4.50;;
21733;SDS011;11029;47.820;10.534;2022-09-03T07:41:11;4.43;;;4.03;;
21733;SDS011;11029;47.820;10.534;2022-09-03T07:46:21;4.97;;;4.38;;
21733;SDS011;11029;47.820;10.534;2022-09-03T07:48:54;4.80;;;4.32;;
21733;SDS011;11029;47.820;10.534;2022-09-03T07:51:23;4.03;;;3.72;;
21733;SDS011;11029;47.820;10.534;2022-09-03T07:53:52;4.00;;;3.60;;
21733;SDS011;11029;47.820;10.534;2022-09-03T07:56:21;8.15;;;3.67;;
21733;SDS011;11029;47.820;10.534;2022-09-03T07:58:48;3.38;;;3.08;;
21733;SDS011;11029;47.820;10.534;2022-09-03T08:01:16;3.70;;;3.40;;
21733;SDS011;11029;47.820;10.534;2022-09-03T08:03:45;3.42;;;3.13;;
21733;SDS011;11029;47.820;10.534;2022-09-03T08:06:14;3.60;;;3.30;;
21733;SDS011;11029;47.820;10.534;2022-09-03T08:08:43;3.10;;;2.75;;
21733;SDS011;11029;47.820;10.534;2022-09-03T08:11:13;3.47;;;3.17;;
21733;SDS011;11029;47.820;10.534;2022-09-03T08:13:43;2.97;;;2.78;;
21733;SDS011;11029;47.820;10.534;2022-09-03T08:16:18;3.42;;;2.90;;
21733;SDS011;11029;47.820;10.534;2022-09-03T08:18:45;3.08;;;2.88;;
21733;SDS011;11029;47.820;10.534;2022-09-03T08:21:13;2.97;;;2.75;;
21733;SDS011;11029;47.820;10.534;2022-09-03T08:23:43;4.13;;;2.80;;
21733;SDS011;11029;47.820;10.534;2022-09-03T08:26:11;2.70;;;2.50;;
21733;SDS011;11029;47.820;10.534;2022-09-03T08:28:39;3.20;;;2.85;;
21733;SDS011;11029;47.820;10.534;2022-09-03T08:31:13;5.03;;;2.70;;
21733;SDS011;11029;47.820;10.534;2022-09-03T08:33:51;1.97;;;1.80;;
21733;SDS011;11029;47.820;10.534;2022-09-03T08:36:23;2.03;;;1.92;;
21733;SDS011;11029;47.820;10.534;2022-09-03T08:38:58;2.40;;;2.20;;
21733;SDS011;11029;47.820;10.534;2022-09-03T08:41:37;7.63;;;2.00;;
21733;SDS011;11029;47.820;10.534;2022-09-03T08:44:39;2.20;;;1.40;;
21733;SDS011;11029;47.820;10.534;2022-09-03T08:49:55;1.25;;;1.15;;
21733;SDS011;11029;47.820;10.534;2022-09-03T08:54:59;1.33;;;1.23;;
21733;SDS011;11029;47.820;10.534;2022-09-03T08:57:39;1.20;;;1.10;;
21733;SDS011;11029;47.820;10.534;2022-09-03T09:00:11;1.40;;;1.30;;
21733;SDS011;11029;47.820;10.534;2022-09-03T09:02:52;1.92;;;1.50;;
21733;SDS011;11029;47.820;10.534;2022-09-03T09:05:37;1.65;;;1.55;;
21733;SDS011;11029;47.820;10.534;2022-09-03T09:08:11;1.60;;;1.50;;
21733;SDS011;11029;47.820;10.534;2022-09-03T09:13:44;1.10;;;1.00;;
21733;SDS011;11029;47.820;10.534;2022-09-03T09:25:00;1.40;;;1.27;;
21733;SDS011;11029;47.820;10.534;2022-09-03T09:27:34;1.70;;;1.50;;
21733;SDS011;11029;47.820;10.534;2022-09-03T09:30:03;1.73;;;1.20;;
21733;SDS011;11029;47.820;10.534;2022-09-03T09:32:31;1.30;;;1.20;;
21733;SDS011;11029;47.820;10.534;2022-09-03T09:35:00;1.80;;;1.27;;
21733;SDS011;11029;47.820;10.534;2022-09-03T09:37:27;3.10;;;1.30;;
21733;SDS011;11029;47.820;10.534;2022-09-03T09:39:55;1.98;;;1.30;;
21733;SDS011;11029;47.820;10.534;2022-09-03T09:42:24;1.30;;;1.20;;
21733;SDS011;11029;47.820;10.534;2022-09-03T09:44:52;1.27;;;1.17;;
21733;SDS011;11029;47.820;10.534;2022-09-03T09:47:24;1.30;;;1.20;;
21733;SDS011;11029;47.820;10.534;2022-09-03T09:49:58;1.20;;;1.10;;
21733;SDS011;11029;47.820;10.534;2022-09-03T09:52:27;0.90;;;0.90;;
21733;SDS011;11029;47.820;10.534;2022-09-03T09:55:08;0.90;;;0.90;;
21733;SDS011;11029;47.820;10.534;2022-09-03T09:57:41;0.98;;;0.98;;
21733;SDS011;11029;47.820;10.534;2022-09-03T10:00:09;1.00;;;1.00;;
21733;SDS011;11029;47.820;10.534;2022-09-03T10:02:38;0.90;;;0.90;;
21733;SDS011;11029;47.820;10.534;2022-09-03T10:05:28;0.98;;;0.98;;
21733;SDS011;11029;47.820;10.534;2022-09-03T10:10:26;1.15;;;1.10;;
21733;SDS011;11029;47.820;10.534;2022-09-03T10:13:13;1.30;;;1.02;;
21733;SDS011;11029;47.820;10.534;2022-09-03T10:16:01;1.10;;;1.00;;
21733;SDS011;11029;47.820;10.534;2022-09-03T10:22:02;1.00;;;1.00;;
21733;SDS011;11029;47.820;10.534;2022-09-03T10:24:37;1.35;;;1.25;;
21733;SDS011;11029;47.820;10.534;2022-09-03T10:27:27;2.88;;;1.10;;
21733;SDS011;11029;47.820;10.534;2022-09-03T10:29:57;1.45;;;1.35;;
21733;SDS011;11029;47.820;10.534;2022-09-03T10:32:37;0.95;;;0.93;;
21733;SDS011;11029;47.820;10.534;2022-09-03T10:38:05;1.25;;;0.95;;
21733;SDS011;11029;47.820;10.534;2022-09-03T10:46:32;4.32;;;1.33;;
21733;SDS011;11029;47.820;10.534;2022-09-03T10:51:54;1.30;;;1.20;;
21733;SDS011;11029;47.820;10.534;2022-09-03T10:54:41;1.20;;;1.10;;
21733;SDS011;11029;47.820;10.534;2022-09-03T10:57:25;1.33;;;1.10;;
21733;SDS011;11029;47.820;10.534;2022-09-03T11:00:14;1.30;;;1.20;;
21733;SDS011;11029;47.820;10.534;2022-09-03T11:05:34;7.35;;;1.40;;
21733;SDS011;11029;47.820;10.534;2022-09-03T11:08:11;1.20;;;1.10;;
21733;SDS011;11029;47.820;10.534;2022-09-03T11:13:27;0.90;;;0.90;;
21733;SDS011;11029;47.820;10.534;2022-09-03T11:16:07;1.50;;;1.30;;
21733;SDS011;11029;47.820;10.534;2022-09-03T11:21:15;3.00;;;1.33;;
21733;SDS011;11029;47.820;10.534;2022-09-03T11:23:46;1.23;;;1.10;;
21733;SDS011;11029;47.820;10.534;2022-09-03T11:26:31;1.15;;;1.05;;
21733;SDS011;11029;47.820;10.534;2022-09-03T11:31:32;0.90;;;0.90;;
21733;SDS011;11029;47.820;10.534;2022-09-03T11:37:31;1.35;;;1.10;;
21733;SDS011;11029;47.820;10.534;2022-09-03T11:40:02;1.73;;;1.13;;
21733;SDS011;11029;47.820;10.534;2022-09-03T11:42:39;0.90;;;0.90;;
21733;SDS011;11029;47.820;10.534;2022-09-03T11:47:50;1.02;;;1.00;;
21733;SDS011;11029;47.820;10.534;2022-09-03T11:53:08;1.13;;;0.95;;
21733;SDS011;11029;47.820;10.534;2022-09-03T11:58:28;1.20;;;1.20;;
21733;SDS011;11029;47.820;10.534;2022-09-03T12:00:58;1.00;;;1.00;;
21733;SDS011;11029;47.820;10.534;2022-09-03T12:03:28;1.45;;;1.10;;
21733;SDS011;11029;47.820;10.534;2022-09-03T12:17:56;1.33;;;0.80;;
21733;SDS011;11029;47.820;10.534;2022-09-03T12:20:58;1.40;;;1.10;;
21733;SDS011;11029;47.820;10.534;2022-09-03T12:24:01;1.23;;;0.88;;
21733;SDS011;11029;47.820;10.534;2022-09-03T12:26:24;1.17;;;1.10;;
21733;SDS011;11029;47.820;10.534;2022-09-03T12:28:55;1.00;;;1.00;;
21733;SDS011;11029;47.820;10.534;2022-09-03T12:31:24;1.20;;;1.20;;
21733;SDS011;11029;47.820;10.534;2022-09-03T12:33:55;1.52;;;1.27;;
21733;SDS011;11029;47.820;10.534;2022-09-03T12:37:02;2.45;;;1.30;;
21733;SDS011;11029;47.820;10.534;2022-09-03T12:39:22;1.13;;;0.80;;
21733;SDS011;11029;47.820;10.534;2022-09-03T12:42:32;4.30;;;1.73;;
21733;SDS011;11029;47.820;10.534;2022-09-03T12:45:06;2.15;;;1.17;;
21733;SDS011;11029;47.820;10.534;2022-09-03T12:47:38;0.85;;;0.85;;
21733;SDS011;11029;47.820;10.534;2022-09-03T12:50:13;1.35;;;0.98;;
21733;SDS011;11029;47.820;10.534;2022-09-03T12:58:15;4.65;;;3.30;;
21733;SDS011;11029;47.820;10.534;2022-09-03T13:00:59;3.33;;;2.22;;
21733;SDS011;11029;47.820;10.534;2022-09-03T13:06:13;1.60;;;1.50;;
21733;SDS011;11029;47.820;10.534;2022-09-03T13:08:46;2.13;;;1.40;;
21733;SDS011;11029;47.820;10.534;2022-09-03T13:11:21;2.58;;;1.20;;
21733;SDS011;11029;47.820;10.534;2022-09-03T13:22:17;0.68;;;0.68;;
21733;SDS011;11029;47.820;10.534;2022-09-03T13:30:20;1.08;;;0.68;;
21733;SDS011;11029;47.820;10.534;2022-09-03T13:33:14;1.65;;;0.75;;
21733;SDS011;11029;47.820;10.534;2022-09-03T13:41:17;1.20;;;1.10;;
21733;SDS011;11029;47.820;10.534;2022-09-03T13:46:59;1.15;;;1.05;;
21733;SDS011;11029;47.820;10.534;2022-09-03T13:52:55;2.13;;;0.60;;
21733;SDS011;11029;47.820;10.534;2022-09-03T14:03:30;1.33;;;0.90;;
21733;SDS011;11029;47.820;10.534;2022-09-03T14:20:46;2.63;;;2.42;;
21733;SDS011;11029;47.820;10.534;2022-09-03T14:23:33;1.47;;;1.10;;
21733;SDS011;11029;47.820;10.534;2022-09-03T14:26:18;1.30;;;0.90;;
21733;SDS011;11029;47.820;10.534;2022-09-03T14:29:14;1.05;;;0.93;;
21733;SDS011;11029;47.820;10.534;2022-09-03T14:37:12;1.00;;;1.00;;
21733;SDS011;11029;47.820;10.534;2022-09-03T14:59:30;0.90;;;0.63;;
21733;SDS011;11029;47.820;10.534;2022-09-03T15:02:08;0.32;;;0.32;;
21733;SDS011;11029;47.820;10.534;2022-09-03T15:07:57;0.52;;;0.52;;
21733;SDS011;11029;47.820;10.534;2022-09-03T15:10:33;0.40;;;0.40;;
21733;SDS011;11029;47.820;10.534;2022-09-03T15:13:31;1.77;;;0.50;;
21733;SDS011;11029;47.820;10.534;2022-09-03T15:16:11;0.75;;;0.63;;
21733;SDS011;11029;47.820;10.534;2022-09-03T15:28:09;0.50;;;0.50;;
21733;SDS011;11029;47.820;10.534;2022-09-03T15:33:37;0.60;;;0.57;;
21733;SDS011;11029;47.820;10.534;2022-09-03T15:36:21;0.50;;;0.50;;
21733;SDS011;11029;47.820;10.534;2022-09-03T15:39:04;1.30;;;0.60;;
21733;SDS011;11029;47.820;10.534;2022-09-03T15:41:49;0.60;;;0.60;;
21733;SDS011;11029;47.820;10.534;2022-09-03T15:44:44;1.02;;;0.60;;
21733;SDS011;11029;47.820;10.534;2022-09-03T15:47:28;0.32;;;0.32;;
21733;SDS011;11029;47.820;10.534;2022-09-03T15:50:24;0.40;;;0.40;;
21733;SDS011;11029;47.820;10.534;2022-09-03T15:53:20;0.40;;;0.40;;
21733;SDS011;11029;47.820;10.534;2022-09-03T15:58:54;0.75;;;0.40;;
21733;SDS011;11029;47.820;10.534;2022-09-03T16:01:42;0.30;;;0.30;;
21733;SDS011;11029;47.820;10.534;2022-09-03T16:16:02;0.50;;;0.50;;
21733;SDS011;11029;47.820;10.534;2022-09-03T16:29:15;1.95;;;0.55;;
21733;SDS011;11029;47.820;10.534;2022-09-03T16:34:37;0.75;;;0.55;;
21733;SDS011;11029;47.820;10.534;2022-09-03T16:43:16;1.58;;;0.50;;
21733;SDS011;11029;47.820;10.534;2022-09-03T16:51:53;0.40;;;0.40;;
21733;SDS011;11029;47.820;10.534;2022-09-03T17:00:06;0.40;;;0.40;;
21733;SDS011;11029;47.820;10.534;2022-09-03T17:24:41;1.20;;;1.10;;
21733;SDS011;11029;47.820;10.534;2022-09-03T17:32:53;0.80;;;0.80;;
21733;SDS011;11029;47.820;10.534;2022-09-03T17:38:18;1.05;;;0.70;;
21733;SDS011;11029;47.820;10.534;2022-09-03T17:41:12;0.73;;;0.60;;
21733;SDS011;11029;47.820;10.534;2022-09-03T17:46:44;0.63;;;0.63;;
21733;SDS011;11029;47.820;10.534;2022-09-03T17:49:23;0.98;;;0.88;;
21733;SDS011;11029;47.820;10.534;2022-09-03T17:51:58;1.98;;;1.60;;
21733;SDS011;11029;47.820;10.534;2022-09-03T18:02:28;0.73;;;0.73;;
21733;SDS011;11029;47.820;10.534;2022-09-03T18:13:20;3.30;;;1.67;;
21733;SDS011;11029;47.820;10.534;2022-09-03T18:15:58;10.02;;;5.80;;
21733;SDS011;11029;47.820;10.534;2022-09-03T18:18:31;1.83;;;1.35;;
21733;SDS011;11029;47.820;10.534;2022-09-03T18:21:00;2.45;;;1.33;;
21733;SDS011;11029;47.820;10.534;2022-09-03T18:24:03;7.63;;;5.07;;
21733;SDS011;11029;47.820;10.534;2022-09-03T18:29:49;2.33;;;1.50;;
21733;SDS011;11029;47.820;10.534;2022-09-03T18:35:26;1.30;;;1.20;;
21733;SDS011;11029;47.820;10.534;2022-09-03T18:38:14;1.10;;;1.08;;
21733;SDS011;11029;47.820;10.534;2022-09-03T18:43:56;1.98;;;1.00;;
21733;SDS011;11029;47.820;10.534;2022-09-03T18:47:43;1.63;;;1.23;;
21733;SDS011;11029;47.820;10.534;2022-09-03T18:57:27;0.65;;;0.65;;
21733;SDS011;11029;47.820;10.534;2022-09-03T19:00:22;0.90;;;0.90;;
21733;SDS011;11029;47.820;10.534;2022-09-03T19:06:37;2.90;;;2.70;;
21733;SDS011;11029;47.820;10.534;2022-09-03T19:19:03;2.85;;;1.95;;
21733;SDS011;11029;47.820;10.534;2022-09-03T19:22:11;2.38;;;2.17;;
21733;SDS011;11029;47.820;10.534;2022-09-03T19:25:05;2.75;;;2.15;;
21733;SDS011;11029;47.820;10.534;2022-09-03T19:28:12;2.80;;;1.77;;
21733;SDS011;11029;47.820;10.534;2022-09-03T19:37:08;2.78;;;2.55;;
21733;SDS011;11029;47.820;10.534;2022-09-03T19:43:16;2.03;;;1.60;;
21733;SDS011;11029;47.820;10.534;2022-09-03T19:55:17;2.03;;;1.48;;
21733;SDS011;11029;47.820;10.534;2022-09-03T19:58:07;2.70;;;2.17;;
21733;SDS011;11029;47.820;10.534;2022-09-03T20:01:08;1.70;;;1.60;;
21733;SDS011;11029;47.820;10.534;2022-09-03T20:03:54;4.85;;;1.48;;
21733;SDS011;11029;47.820;10.534;2022-09-03T20:06:42;2.15;;;1.27;;
21733;SDS011;11029;47.820;10.534;2022-09-03T20:09:31;1.65;;;1.10;;
21733;SDS011;11029;47.820;10.534;2022-09-03T20:12:20;1.23;;;1.13;;
21733;SDS011;11029;47.820;10.534;2022-09-03T20:14:49;2.65;;;1.30;;
21733;SDS011;11029;47.820;10.534;2022-09-03T20:17:34;1.05;;;0.98;;
21733;SDS011;11029;47.820;10.534;2022-09-03T20:20:31;2.28;;;0.82;;
21733;SDS011;11029;47.820;10.534;2022-09-03T20:25:43;1.65;;;1.30;;
21733;SDS011;11029;47.820;10.534;2022-09-03T20:31:37;1.30;;;1.20;;
21733;SDS011;11029;47.820;10.534;2022-09-03T20:36:55;1.45;;;1.10;;
21733;SDS011;11029;47.820;10.534;2022-09-03T20:42:34;1.00;;;0.80;;
21733;SDS011;11029;47.820;10.534;2022-09-03T20:45:19;3.25;;;0.80;;
21733;SDS011;11029;47.820;10.534;2022-09-03T20:56:41;0.63;;;0.60;;
21733;SDS011;11029;47.820;10.534;2022-09-03T21:01:58;1.02;;;0.90;;
21733;SDS011;11029;47.820;10.534;2022-09-03T21:07:25;1.75;;;1.65;;
21733;SDS011;11029;47.820;10.534;2022-09-03T21:10:17;1.60;;;1.50;;
21733;SDS011;11029;47.820;10.534;2022-09-03T21:18:01;2.53;;;1.38;;
21733;SDS011;11029;47.820;10.534;2022-09-03T21:20:56;1.45;;;1.35;;
21733;SDS011;11029;47.820;10.534;2022-09-03T21:23:38;1.90;;;1.48;;
21733;SDS011;11029;47.820;10.534;2022-09-03T21:28:57;2.28;;;1.85;;
21733;SDS011;11029;47.820;10.534;2022-09-03T21:31:42;5.10;;;3.50;;
21733;SDS011;11029;47.820;10.534;2022-09-03T21:34:18;3.28;;;2.90;;
21733;SDS011;11029;47.820;10.534;2022-09-03T21:36:50;3.08;;;2.50;;
21733;SDS011;11029;47.820;10.534;2022-09-03T21:39:21;3.63;;;2.92;;
21733;SDS011;11029;47.820;10.534;2022-09-03T21:42:06;3.22;;;2.80;;
21733;SDS011;11029;47.820;10.534;2022-09-03T21:47:07;2.55;;;1.20;;
21733;SDS011;11029;47.820;10.534;2022-09-03T21:49:51;1.83;;;1.20;;
21733;SDS011;11029;47.820;10.534;2022-09-03T21:52:32;2.13;;;1.10;;
21733;SDS011;11029;47.820;10.534;2022-09-03T21:58:23;1.83;;;0.70;;
21733;SDS011;11029;47.820;10.534;2022-09-03T22:01:17;0.70;;;0.65;;
21733;SDS011;11029;47.820;10.534;2022-09-03T22:03:51;1.05;;;0.95;;
21733;SDS011;11029;47.820;10.534;2022-09-03T22:06:27;0.75;;;0.75;;
21733;SDS011;11029;47.820;10.534;2022-09-03T22:09:03;2.55;;;0.80;;
21733;SDS011;11029;47.820;10.534;2022-09-03T22:12:05;1.67;;;1.08;;
21733;SDS011;11029;47.820;10.534;2022-09-03T22:14:43;2.38;;;1.33;;